createdAt,value
2022-07-29T00:04:26.815Z,29.50
2022-07-29T00:09:28.530Z,29.52
2022-07-29T00:14:30.002Z,29.53
2022-07-29T00:19:31.398Z,29.40
2022-07-29T00:24:34.392Z,29.57
2022-07-29T00:29:35.804Z,29.52
2022-07-29T00:34:55.590Z,29.63
2022-07-29T00:39:57.006Z,29.77
2022-07-29T00:44:58.434Z,29.36
2022-07-29T00:49:59.849Z,29.91
2022-07-29T00:55:06.346Z,29.88
2022-07-29T01:00:15.291Z,30.11
2022-07-29T01:05:21.157Z,29.85
2022-07-29T01:10:22.849Z,29.75
2022-07-29T01:15:24.341Z,30.15
2022-07-29T01:21:03.602Z,29.97
2022-07-29T01:26:14.370Z,30.14
2022-07-29T01:31:26.630Z,30.20
2022-07-29T01:36:41.289Z,30.32
2022-07-29T01:41:48.981Z,30.05
2022-07-29T01:46:53.431Z,30.56
2022-07-29T01:52:35.925Z,30.62
2022-07-29T01:57:37.334Z,30.72
2022-07-29T02:02:39.708Z,30.64
2022-07-29T02:07:44.270Z,30.45
2022-07-29T02:12:50.604Z,30.67
2022-07-29T02:17:55.886Z,30.59
2022-07-29T02:22:57.821Z,30.42
2022-07-29T02:27:59.316Z,30.71
2022-07-29T02:33:00.725Z,30.58
2022-07-29T02:38:20.784Z,30.59
2022-07-29T02:43:22.214Z,30.65
2022-07-29T02:48:26.721Z,30.47
2022-07-29T02:53:28.126Z,30.87
2022-07-29T02:58:34.454Z,30.52
2022-07-29T03:03:37.748Z,30.46
2022-07-29T03:08:39.173Z,31.06
2022-07-29T03:13:40.597Z,30.84
2022-07-29T03:18:42.029Z,30.71
2022-07-29T03:23:46.686Z,31.21
2022-07-29T03:28:48.086Z,31.23
2022-07-29T03:33:49.509Z,31.20
2022-07-29T03:38:50.976Z,31.30
2022-07-29T03:43:52.478Z,31.40
2022-07-29T03:48:55.512Z,30.81
2022-07-29T03:53:56.955Z,31.45
2022-07-29T03:58:58.713Z,31.36
2022-07-29T04:04:01.162Z,31.17
2022-07-29T04:09:02.622Z,31.29
2022-07-29T04:14:04.071Z,31.39
2022-07-29T04:19:05.507Z,31.31
2022-07-29T04:24:07.256Z,31.34
2022-07-29T04:29:08.682Z,31.42
2022-07-29T04:34:10.643Z,31.68
2022-07-29T04:39:12.055Z,31.58
2022-07-29T04:44:13.955Z,31.64
2022-07-29T04:49:15.729Z,31.55
2022-07-29T04:54:17.501Z,31.52
2022-07-29T04:59:19.137Z,31.73
2022-07-29T05:04:21.062Z,31.98
2022-07-29T05:09:22.651Z,31.91
2022-07-29T05:14:24.074Z,32.23
2022-07-29T05:19:25.692Z,32.07
2022-07-29T05:24:27.145Z,34.28
2022-07-29T05:29:44.438Z,33.81
2022-07-29T05:34:50.689Z,33.87
2022-07-29T05:39:56.909Z,33.28
2022-07-29T05:44:58.673Z,33.59
2022-07-29T05:50:00.181Z,33.35
2022-07-29T05:55:05.120Z,33.06
2022-07-29T06:00:07.175Z,33.29
2022-07-29T06:05:12.875Z,33.32
2022-07-29T06:10:19.186Z,33.42
2022-07-29T06:15:20.601Z,33.02
2022-07-29T06:20:26.991Z,33.46
2022-07-29T06:25:31.800Z,33.01
2022-07-29T06:30:33.350Z,33.38
2022-07-29T06:35:41.801Z,33.16
2022-07-29T06:41:03.308Z,32.84
2022-07-29T06:46:06.586Z,33.10
2022-07-29T06:51:08.137Z,32.95
2022-07-29T06:56:09.708Z,33.01
2022-07-29T07:01:11.237Z,32.83
2022-07-29T07:06:15.440Z,33.10
2022-07-29T07:11:16.869Z,33.27
2022-07-29T07:16:18.498Z,32.95
2022-07-29T07:21:19.986Z,32.94
2022-07-29T07:26:21.454Z,33.14
2022-07-29T07:31:23.300Z,32.99
2022-07-29T07:36:24.792Z,33.12
2022-07-29T07:41:26.197Z,33.10
2022-07-29T07:46:33.865Z,33.17
2022-07-29T07:51:35.324Z,32.77
2022-07-29T07:56:36.739Z,32.72
2022-07-29T08:01:55.065Z,32.55
2022-07-29T08:06:58.175Z,33.02
2022-07-29T08:12:00.126Z,32.85
2022-07-29T08:17:01.634Z,33.24
2022-07-29T08:22:03.139Z,32.83
2022-07-29T08:27:12.861Z,32.85
2022-07-29T08:32:43.777Z,32.62
2022-07-29T08:37:47.438Z,32.68
2022-07-29T08:42:48.846Z,32.69
2022-07-29T08:47:50.302Z,32.75
2022-07-29T08:52:54.405Z,33.00
2022-07-29T08:57:58.010Z,33.10
2022-07-29T09:03:00.803Z,33.06
2022-07-29T09:08:02.321Z,33.15
2022-07-29T09:13:03.845Z,33.18
2022-07-29T09:18:05.255Z,33.13
2022-07-29T09:23:08.689Z,33.43
2022-07-29T09:28:19.028Z,33.53
2022-07-29T09:33:21.529Z,33.28
2022-07-29T09:38:23.079Z,33.46
2022-07-29T09:43:24.505Z,33.27
2022-07-29T09:48:26.416Z,33.23
2022-07-29T09:53:38.123Z,33.25
2022-07-29T09:58:39.549Z,33.63
2022-07-29T10:03:53.444Z,33.75
2022-07-29T10:08:55.005Z,33.50
2022-07-29T10:13:56.453Z,33.74
2022-07-29T10:18:58.910Z,33.75
2022-07-29T10:24:01.305Z,33.74
2022-07-29T10:29:03.005Z,33.83
2022-07-29T10:34:26.378Z,33.58
2022-07-29T10:39:44.478Z,33.57
2022-07-29T10:44:46.688Z,33.94
2022-07-29T10:50:02.189Z,33.64
2022-07-29T10:55:05.641Z,33.64
2022-07-29T11:00:11.551Z,34.12
2022-07-29T11:05:20.124Z,34.14
2022-07-29T11:10:22.336Z,33.92
2022-07-29T11:20:50.988Z,33.80
2022-07-29T11:26:24.502Z,33.33
2022-07-29T11:31:49.195Z,33.42
2022-07-29T11:37:14.881Z,33.76
2022-07-29T11:47:46.591Z,33.20
2022-07-29T11:52:49.669Z,33.34
2022-07-29T11:58:04.254Z,33.52
2022-07-29T12:03:10.139Z,33.55
2022-07-29T12:07:01.819Z,33.32
2022-07-29T12:08:20.599Z,33.63
2022-07-29T12:13:22.426Z,33.19
2022-07-29T12:18:24.479Z,33.72
2022-07-29T12:23:26.025Z,33.58
2022-07-29T12:28:31.937Z,33.95
2022-07-29T12:33:35.161Z,33.57
2022-07-29T12:38:36.841Z,34.05
2022-07-29T12:43:38.340Z,33.65
2022-07-29T12:48:40.913Z,33.83
2022-07-29T12:53:42.448Z,34.05
2022-07-29T12:58:47.049Z,34.19
2022-07-29T13:04:01.005Z,34.26
2022-07-29T13:09:08.101Z,34.14
2022-07-29T13:14:10.268Z,33.80
2022-07-29T13:19:12.297Z,34.10
2022-07-29T13:24:16.875Z,34.10
2022-07-29T13:29:21.145Z,34.46
2022-07-29T13:34:25.134Z,34.48
2022-07-29T13:39:26.533Z,34.60
2022-07-29T13:44:27.937Z,34.42
2022-07-29T13:49:29.517Z,34.48
2022-07-29T13:54:31.197Z,34.45
2022-07-29T13:59:32.728Z,34.52
2022-07-29T14:04:34.366Z,34.39
2022-07-29T14:09:40.939Z,34.40
2022-07-29T14:14:43.223Z,34.11
2022-07-29T14:19:44.639Z,33.89
2022-07-29T14:24:46.094Z,34.25
2022-07-29T14:29:47.509Z,34.62
2022-07-29T14:34:48.922Z,34.44
2022-07-29T14:39:50.338Z,34.42
2022-07-29T14:44:51.765Z,34.03
2022-07-29T14:49:53.401Z,34.70
2022-07-29T14:54:54.797Z,34.58
2022-07-29T14:59:56.224Z,34.50
2022-07-29T15:04:57.643Z,34.58
2022-07-29T15:09:59.791Z,34.26
2022-07-29T15:15:01.248Z,34.59
2022-07-29T15:20:05.401Z,34.50
2022-07-29T15:25:07.047Z,34.31
2022-07-29T15:30:09.112Z,34.04
2022-07-29T15:35:11.102Z,34.24
2022-07-29T15:40:12.507Z,34.36
2022-07-29T15:45:14.002Z,34.76
2022-07-29T15:50:16.716Z,34.43
2022-07-29T15:55:18.865Z,34.72
2022-07-29T16:00:22.317Z,34.54
2022-07-29T16:05:23.792Z,34.73
2022-07-29T16:10:25.226Z,34.83
2022-07-29T16:15:26.666Z,34.35
2022-07-29T16:20:28.081Z,34.56
2022-07-29T16:25:57.386Z,34.50
2022-07-29T16:30:51.465Z,34.54
2022-07-29T16:35:52.945Z,34.43
2022-07-29T16:40:54.345Z,34.58
2022-07-29T16:45:56.065Z,34.51
2022-07-29T16:50:57.501Z,34.40
2022-07-29T16:55:58.909Z,34.31
2022-07-29T17:01:00.376Z,34.53
2022-07-29T17:06:01.897Z,34.53
2022-07-29T17:11:03.293Z,34.33
2022-07-29T17:16:04.932Z,34.19
2022-07-29T17:21:06.359Z,34.67
2022-07-29T17:26:07.785Z,34.55
2022-07-29T17:31:09.267Z,34.71
2022-07-29T17:36:26.745Z,34.50
2022-07-29T17:41:28.181Z,34.36
2022-07-29T17:46:29.590Z,34.53
2022-07-29T17:51:31.009Z,34.44
2022-07-29T17:56:32.618Z,34.76
2022-07-29T18:01:34.200Z,34.97
2022-07-29T18:06:35.669Z,34.77
2022-07-29T18:11:37.064Z,34.37
2022-07-29T18:16:40.578Z,34.59
2022-07-29T18:21:50.976Z,34.80
2022-07-29T18:26:57.135Z,34.43
2022-07-29T18:31:59.759Z,34.53
2022-07-29T18:37:01.507Z,34.37
2022-07-29T18:42:03.061Z,34.93
2022-07-29T18:47:04.813Z,34.80
2022-07-29T18:52:07.945Z,34.80
2022-07-29T18:57:54.889Z,34.61
2022-07-29T19:02:30.962Z,34.75
2022-07-29T19:07:32.513Z,35.01
2022-07-29T19:12:33.922Z,34.73
2022-07-29T19:17:35.316Z,35.04
2022-07-29T19:22:36.745Z,35.17
2022-07-29T19:27:38.174Z,35.04
2022-07-29T19:32:39.585Z,34.92
2022-07-29T19:37:41.532Z,35.02
2022-07-29T19:42:43.393Z,35.14
2022-07-29T19:47:45.113Z,35.67
2022-07-29T19:52:47.007Z,35.73
2022-07-29T19:57:48.470Z,35.54
2022-07-29T20:02:50.045Z,36.17
2022-07-29T20:07:51.674Z,36.02
2022-07-29T20:12:53.789Z,36.24
2022-07-29T20:17:57.427Z,36.38
2022-07-29T20:22:59.189Z,36.40
2022-07-29T20:28:00.665Z,36.46
2022-07-29T20:33:02.113Z,36.00
2022-07-29T20:38:03.520Z,36.05
2022-07-29T20:43:05.716Z,36.21
2022-07-29T20:48:08.386Z,36.50
2022-07-29T20:53:10.041Z,36.52
2022-07-29T20:58:11.451Z,36.53
2022-07-29T21:03:12.857Z,36.37
2022-07-29T21:08:14.668Z,36.47
2022-07-29T21:13:16.588Z,36.53
2022-07-29T21:18:30.190Z,36.41
2022-07-29T21:23:32.100Z,36.37
2022-07-29T21:28:42.153Z,36.38
2022-07-29T21:33:44.798Z,36.59
2022-07-29T21:38:46.193Z,36.46
2022-07-29T21:43:47.657Z,36.51
2022-07-29T21:48:49.105Z,36.58
2022-07-29T21:53:50.576Z,36.86
2022-07-29T21:58:54.792Z,36.54
2022-07-29T22:03:56.350Z,36.76
2022-07-29T22:08:57.782Z,37.00
2022-07-29T22:13:59.569Z,36.96
2022-07-29T22:19:01.056Z,37.15
2022-07-29T22:24:02.477Z,37.35
2022-07-29T22:29:03.892Z,36.90
2022-07-29T22:34:11.545Z,37.39
2022-07-29T22:39:15.669Z,37.20
2022-07-29T22:44:17.684Z,37.25
2022-07-29T22:49:19.179Z,37.47
2022-07-29T22:59:22.124Z,37.36
2022-07-29T23:04:23.675Z,37.67
2022-07-29T23:09:25.118Z,37.82
2022-07-29T23:14:26.528Z,37.41
2022-07-29T23:19:27.957Z,38.01
2022-07-29T23:24:29.353Z,37.83
2022-07-29T23:29:34.972Z,37.65
2022-07-29T23:34:37.952Z,37.79
2022-07-29T23:39:39.514Z,37.71
2022-07-29T23:44:40.913Z,37.72
2022-07-29T23:49:42.325Z,38.11
2022-07-29T23:54:43.725Z,37.91
2022-07-29T23:59:45.137Z,38.13
